sensor_id;sensor_type;location;lat;lon;timestamp;pressure;altitude;pressure_sealevel;temperature;humidity
60719;BME280;46567;51.660;5.824;2023-02-28T00:03:07;103040.0;;;1.5;68.5
60719;BME280;46567;51.660;5.824;2023-02-28T00:08:07;103040.0;;;1.5;68.5
60719;BME280;46567;51.660;5.824;2023-02-28T00:13:07;103040.0;;;1.5;68.5
60719;BME280;46567;51.660;5.824;2023-02-28T00:18:07;103040.0;;;1.5;68.5
60719;BME280;46567;51.660;5.824;2023-02-28T00:23:07;103030.0;;;1.4;69.0
60719;BME280;46567;51.660;5.824;2023-02-28T00:28:07;103030.0;;;1.4;69.0
60719;BME280;46567;51.660;5.824;2023-02-28T00:33:07;103030.0;;;1.4;69.0
60719;BME280;46567;51.660;5.824;2023-02-28T00:38:07;103030.0;;;1.3;69.0
60719;BME280;46567;51.660;5.824;2023-02-28T00:43:07;103030.0;;;1.3;69.0
60719;BME280;46567;51.660;5.824;2023-02-28T00:48:07;103030.0;;;1.3;69.0
60719;BME280;46567;51.660;5.824;2023-02-28T00:53:07;103030.0;;;1.3;69.5
60719;BME280;46567;51.660;5.824;2023-02-28T00:58:07;103030.0;;;1.3;69.5
60719;BME280;46567;51.660;5.824;2023-02-28T01:03:07;103040.0;;;1.2;69.5
60719;BME280;46567;51.660;5.824;2023-02-28T01:08:07;103040.0;;;1.2;69.5
60719;BME280;46567;51.660;5.824;2023-02-28T01:13:07;103050.0;;;1.2;70.0
60719;BME280;46567;51.660;5.824;2023-02-28T01:18:07;103050.0;;;1.2;69.5
60719;BME280;46567;51.660;5.824;2023-02-28T01:23:07;103050.0;;;1.2;69.5
60719;BME280;46567;51.660;5.824;2023-02-28T01:28:07;103050.0;;;1.2;69.5
60719;BME280;46567;51.660;5.824;2023-02-28T01:33:07;103040.0;;;1.3;69.5
60719;BME280;46567;51.660;5.824;2023-02-28T01:38:07;103040.0;;;1.3;69.0
60719;BME280;46567;51.660;5.824;2023-02-28T01:43:17;103040.0;;;1.3;69.5
60719;BME280;46567;51.660;5.824;2023-02-28T01:48:08;103030.0;;;1.2;69.5
60719;BME280;46567;51.660;5.824;2023-02-28T01:53:10;103040.0;;;1.2;69.5
60719;BME280;46567;51.660;5.824;2023-02-28T01:58:07;103030.0;;;1.1;69.5
60719;BME280;46567;51.660;5.824;2023-02-28T02:03:09;103030.0;;;1.1;69.5
60719;BME280;46567;51.660;5.824;2023-02-28T02:08:10;103030.0;;;1.1;69.5
60719;BME280;46567;51.660;5.824;2023-02-28T02:13:47;103030.0;;;1.1;70.0
60719;BME280;46567;51.660;5.824;2023-02-28T02:18:40;103020.0;;;1.2;70.0
60719;BME280;46567;51.660;5.824;2023-02-28T02:25:15;103020.0;;;1.3;70.0
60719;BME280;46567;51.660;5.824;2023-02-28T02:33:01;103010.0;;;1.3;70.0
60719;BME280;46567;51.660;5.824;2023-02-28T02:37:47;103020.0;;;1.4;70.5
60719;BME280;46567;51.660;5.824;2023-02-28T02:42:14;103020.0;;;1.5;70.5
60719;BME280;46567;51.660;5.824;2023-02-28T02:45:49;103020.0;;;1.6;70.5
60719;BME280;46567;51.660;5.824;2023-02-28T02:48:12;103010.0;;;1.5;71.0
60719;BME280;46567;51.660;5.824;2023-02-28T02:53:08;103010.0;;;1.5;71.0
60719;BME280;46567;51.660;5.824;2023-02-28T02:58:10;103020.0;;;1.7;71.0
60719;BME280;46567;51.660;5.824;2023-02-28T03:03:08;103020.0;;;1.7;71.0
60719;BME280;46567;51.660;5.824;2023-02-28T03:08:07;103010.0;;;1.7;71.5
60719;BME280;46567;51.660;5.824;2023-02-28T03:13:47;103030.0;;;1.6;72.0
60719;BME280;46567;51.660;5.824;2023-02-28T03:19:34;103010.0;;;1.6;72.0
60719;BME280;46567;51.660;5.824;2023-02-28T03:24:16;103010.0;;;1.7;72.5
60719;BME280;46567;51.660;5.824;2023-02-28T03:28:19;103010.0;;;1.8;72.0
60719;BME280;46567;51.660;5.824;2023-02-28T03:33:12;103010.0;;;1.8;72.5
60719;BME280;46567;51.660;5.824;2023-02-28T03:38:11;103010.0;;;1.8;72.0
60719;BME280;46567;51.660;5.824;2023-02-28T03:43:14;103010.0;;;2.0;72.0
60719;BME280;46567;51.660;5.824;2023-02-28T03:48:11;103010.0;;;2.0;71.5
60719;BME280;46567;51.660;5.824;2023-02-28T03:53:14;103020.0;;;2.1;71.5
60719;BME280;46567;51.660;5.824;2023-02-28T03:58:25;103010.0;;;2.1;71.5
60719;BME280;46567;51.660;5.824;2023-02-28T04:03:07;103010.0;;;2.1;71.5
60719;BME280;46567;51.660;5.824;2023-02-28T04:08:07;103000.0;;;2.1;71.5
60719;BME280;46567;51.660;5.824;2023-02-28T04:13:07;103000.0;;;2.2;71.5
60719;BME280;46567;51.660;5.824;2023-02-28T04:18:07;102990.0;;;2.3;71.0
60719;BME280;46567;51.660;5.824;2023-02-28T04:23:07;103000.0;;;2.3;71.0
60719;BME280;46567;51.660;5.824;2023-02-28T04:28:07;103000.0;;;2.3;71.5
60719;BME280;46567;51.660;5.824;2023-02-28T04:33:07;103010.0;;;2.4;71.0
60719;BME280;46567;51.660;5.824;2023-02-28T04:38:07;103010.0;;;2.4;70.5
60719;BME280;46567;51.660;5.824;2023-02-28T04:43:07;103010.0;;;2.4;70.5
60719;BME280;46567;51.660;5.824;2023-02-28T04:48:07;103000.0;;;2.5;70.5
60719;BME280;46567;51.660;5.824;2023-02-28T04:53:07;103010.0;;;2.5;70.5
60719;BME280;46567;51.660;5.824;2023-02-28T04:58:07;103020.0;;;2.4;70.5
60719;BME280;46567;51.660;5.824;2023-02-28T05:03:07;103020.0;;;2.4;70.5
60719;BME280;46567;51.660;5.824;2023-02-28T05:08:07;103020.0;;;2.5;70.5
60719;BME280;46567;51.660;5.824;2023-02-28T05:13:09;103030.0;;;2.5;70.5
60719;BME280;46567;51.660;5.824;2023-02-28T05:18:07;103020.0;;;2.4;70.5
60719;BME280;46567;51.660;5.824;2023-02-28T05:23:08;103030.0;;;2.4;70.5
60719;BME280;46567;51.660;5.824;2023-02-28T05:28:07;103030.0;;;2.5;70.5
60719;BME280;46567;51.660;5.824;2023-02-28T05:33:11;103040.0;;;2.5;70.0
60719;BME280;46567;51.660;5.824;2023-02-28T05:38:07;103030.0;;;2.6;70.0
60719;BME280;46567;51.660;5.824;2023-02-28T05:43:09;103030.0;;;2.6;70.0
60719;BME280;46567;51.660;5.824;2023-02-28T05:48:07;103040.0;;;2.5;70.0
60719;BME280;46567;51.660;5.824;2023-02-28T05:53:07;103040.0;;;2.5;69.5
60719;BME280;46567;51.660;5.824;2023-02-28T05:58:07;103050.0;;;2.5;69.5
60719;BME280;46567;51.660;5.824;2023-02-28T06:03:07;103040.0;;;2.5;69.5
60719;BME280;46567;51.660;5.824;2023-02-28T06:08:07;103050.0;;;2.5;70.0
60719;BME280;46567;51.660;5.824;2023-02-28T06:13:07;103060.0;;;2.4;70.0
60719;BME280;46567;51.660;5.824;2023-02-28T06:18:07;103060.0;;;2.4;70.0
60719;BME280;46567;51.660;5.824;2023-02-28T06:23:07;103060.0;;;2.4;70.0
60719;BME280;46567;51.660;5.824;2023-02-28T06:28:07;103060.0;;;2.4;70.0
60719;BME280;46567;51.660;5.824;2023-02-28T06:33:07;103070.0;;;2.3;70.0
60719;BME280;46567;51.660;5.824;2023-02-28T06:38:07;103080.0;;;2.4;70.5
60719;BME280;46567;51.660;5.824;2023-02-28T06:43:07;103080.0;;;2.4;70.0
60719;BME280;46567;51.660;5.824;2023-02-28T06:48:07;103060.0;;;2.5;69.5
60719;BME280;46567;51.660;5.824;2023-02-28T06:53:07;103070.0;;;2.5;69.5
60719;BME280;46567;51.660;5.824;2023-02-28T06:58:07;103080.0;;;2.5;69.5
60719;BME280;46567;51.660;5.824;2023-02-28T07:03:07;103090.0;;;2.5;69.5
60719;BME280;46567;51.660;5.824;2023-02-28T07:08:07;103080.0;;;2.9;69.5
60719;BME280;46567;51.660;5.824;2023-02-28T07:13:08;103080.0;;;3.1;69.0
60719;BME280;46567;51.660;5.824;2023-02-28T07:18:07;103080.0;;;3.2;69.0
60719;BME280;46567;51.660;5.824;2023-02-28T07:23:07;103090.0;;;3.2;68.5
60719;BME280;46567;51.660;5.824;2023-02-28T07:28:07;103100.0;;;3.0;68.5
60719;BME280;46567;51.660;5.824;2023-02-28T07:33:07;103090.0;;;3.0;68.5
60719;BME280;46567;51.660;5.824;2023-02-28T07:38:07;103100.0;;;2.9;68.5
60719;BME280;46567;51.660;5.824;2023-02-28T07:43:07;103110.0;;;2.8;68.5
60719;BME280;46567;51.660;5.824;2023-02-28T07:48:07;103110.0;;;2.6;68.0
60719;BME280;46567;51.660;5.824;2023-02-28T07:53:07;103120.0;;;2.5;68.5
60719;BME280;46567;51.660;5.824;2023-02-28T07:58:07;103120.0;;;2.5;68.5
60719;BME280;46567;51.660;5.824;2023-02-28T08:03:08;103120.0;;;2.6;67.0
60719;BME280;46567;51.660;5.824;2023-02-28T08:08:07;103120.0;;;2.7;66.5
60719;BME280;46567;51.660;5.824;2023-02-28T08:13:07;103120.0;;;2.8;66.0
60719;BME280;46567;51.660;5.824;2023-02-28T08:18:07;103110.0;;;2.9;65.0
60719;BME280;46567;51.660;5.824;2023-02-28T08:23:07;103120.0;;;3.0;65.0
60719;BME280;46567;51.660;5.824;2023-02-28T08:28:07;103110.0;;;3.1;64.0
60719;BME280;46567;51.660;5.824;2023-02-28T08:33:07;103120.0;;;3.2;64.0
60719;BME280;46567;51.660;5.824;2023-02-28T08:38:07;103110.0;;;3.2;62.5
60719;BME280;46567;51.660;5.824;2023-02-28T08:43:07;103110.0;;;3.3;62.5
60719;BME280;46567;51.660;5.824;2023-02-28T08:48:07;103120.0;;;3.5;62.0
60719;BME280;46567;51.660;5.824;2023-02-28T08:53:07;103120.0;;;3.6;61.5
60719;BME280;46567;51.660;5.824;2023-02-28T08:58:07;103120.0;;;3.7;60.5
60719;BME280;46567;51.660;5.824;2023-02-28T09:03:07;103120.0;;;3.9;61.0
60719;BME280;46567;51.660;5.824;2023-02-28T09:08:07;103120.0;;;4.1;59.0
60719;BME280;46567;51.660;5.824;2023-02-28T09:13:07;103120.0;;;4.2;59.0
60719;BME280;46567;51.660;5.824;2023-02-28T09:18:07;103120.0;;;4.4;58.5
60719;BME280;46567;51.660;5.824;2023-02-28T09:23:07;103120.0;;;4.5;57.5
60719;BME280;46567;51.660;5.824;2023-02-28T09:28:07;103120.0;;;4.6;57.5
60719;BME280;46567;51.660;5.824;2023-02-28T09:33:07;103110.0;;;4.8;56.0
60719;BME280;46567;51.660;5.824;2023-02-28T09:38:07;103110.0;;;4.9;54.0
60719;BME280;46567;51.660;5.824;2023-02-28T09:43:10;103100.0;;;5.0;54.5
60719;BME280;46567;51.660;5.824;2023-02-28T09:48:18;103110.0;;;5.2;54.0
60719;BME280;46567;51.660;5.824;2023-02-28T09:53:26;103100.0;;;5.2;52.5
60719;BME280;46567;51.660;5.824;2023-02-28T09:58:14;103100.0;;;5.4;53.0
60719;BME280;46567;51.660;5.824;2023-02-28T10:03:32;103100.0;;;5.5;50.5
60719;BME280;46567;51.660;5.824;2023-02-28T10:08:22;103100.0;;;5.5;51.0
60719;BME280;46567;51.660;5.824;2023-02-28T10:13:19;103100.0;;;5.7;50.0
60719;BME280;46567;51.660;5.824;2023-02-28T10:18:11;103090.0;;;5.9;49.0
60719;BME280;46567;51.660;5.824;2023-02-28T10:23:17;103080.0;;;5.9;47.5
60719;BME280;46567;51.660;5.824;2023-02-28T10:28:12;103090.0;;;6.0;47.5
60719;BME280;46567;51.660;5.824;2023-02-28T10:33:15;103080.0;;;6.1;48.5
60719;BME280;46567;51.660;5.824;2023-02-28T10:38:14;103090.0;;;6.2;46.5
60719;BME280;46567;51.660;5.824;2023-02-28T10:43:19;103080.0;;;6.2;46.5
60719;BME280;46567;51.660;5.824;2023-02-28T10:48:26;103080.0;;;6.3;46.5
60719;BME280;46567;51.660;5.824;2023-02-28T10:53:14;103070.0;;;6.4;45.5
60719;BME280;46567;51.660;5.824;2023-02-28T10:58:20;103070.0;;;6.4;45.5
60719;BME280;46567;51.660;5.824;2023-02-28T11:03:25;103070.0;;;6.4;45.5
60719;BME280;46567;51.660;5.824;2023-02-28T11:08:13;103060.0;;;6.5;45.5
60719;BME280;46567;51.660;5.824;2023-02-28T11:13:17;103060.0;;;6.7;46.5
60719;BME280;46567;51.660;5.824;2023-02-28T11:18:21;103050.0;;;7.0;46.0
60719;BME280;46567;51.660;5.824;2023-02-28T11:23:12;103050.0;;;6.8;44.0
60719;BME280;46567;51.660;5.824;2023-02-28T11:28:23;103050.0;;;6.9;45.0
60719;BME280;46567;51.660;5.824;2023-02-28T11:33:26;103050.0;;;7.0;45.0
60719;BME280;46567;51.660;5.824;2023-02-28T11:38:09;103040.0;;;7.0;45.0
60719;BME280;46567;51.660;5.824;2023-02-28T11:44:04;103030.0;;;7.1;44.0
60719;BME280;46567;51.660;5.824;2023-02-28T11:48:54;103040.0;;;7.0;42.0
60719;BME280;46567;51.660;5.824;2023-02-28T11:54:20;103040.0;;;7.0;44.0
60719;BME280;46567;51.660;5.824;2023-02-28T11:58:48;103040.0;;;7.2;43.5
60719;BME280;46567;51.660;5.824;2023-02-28T12:04:03;103040.0;;;7.4;44.5
60719;BME280;46567;51.660;5.824;2023-02-28T12:09:01;103030.0;;;7.6;44.0
60719;BME280;46567;51.660;5.824;2023-02-28T12:13:38;103030.0;;;7.6;44.0
60719;BME280;46567;51.660;5.824;2023-02-28T12:19:06;103020.0;;;7.6;43.5
60719;BME280;46567;51.660;5.824;2023-02-28T12:25:08;103010.0;;;7.6;43.0
60719;BME280;46567;51.660;5.824;2023-02-28T12:28:09;103020.0;;;7.5;43.0
60719;BME280;46567;51.660;5.824;2023-02-28T12:33:11;103010.0;;;7.5;42.5
60719;BME280;46567;51.660;5.824;2023-02-28T12:38:12;103010.0;;;7.3;41.0
60719;BME280;46567;51.660;5.824;2023-02-28T12:43:10;102990.0;;;7.2;42.5
60719;BME280;46567;51.660;5.824;2023-02-28T12:48:14;102980.0;;;7.4;43.0
60719;BME280;46567;51.660;5.824;2023-02-28T12:53:15;102970.0;;;7.6;41.5
60719;BME280;46567;51.660;5.824;2023-02-28T12:58:26;102970.0;;;7.5;42.5
60719;BME280;46567;51.660;5.824;2023-02-28T13:04:56;102960.0;;;7.6;42.5
60719;BME280;46567;51.660;5.824;2023-02-28T13:09:21;102960.0;;;7.7;42.5
60719;BME280;46567;51.660;5.824;2023-02-28T13:13:13;102950.0;;;7.7;41.0
60719;BME280;46567;51.660;5.824;2023-02-28T13:18:26;102950.0;;;7.6;41.0
60719;BME280;46567;51.660;5.824;2023-02-28T13:23:40;102950.0;;;7.7;42.0
60719;BME280;46567;51.660;5.824;2023-02-28T13:28:09;102940.0;;;7.7;41.5
60719;BME280;46567;51.660;5.824;2023-02-28T13:33:25;102940.0;;;7.7;41.5
60719;BME280;46567;51.660;5.824;2023-02-28T13:38:21;102940.0;;;7.7;41.0
60719;BME280;46567;51.660;5.824;2023-02-28T13:43:08;102940.0;;;7.7;41.0
60719;BME280;46567;51.660;5.824;2023-02-28T13:48:15;102940.0;;;7.8;41.0
60719;BME280;46567;51.660;5.824;2023-02-28T13:53:39;102930.0;;;7.9;41.5
60719;BME280;46567;51.660;5.824;2023-02-28T13:58:41;102940.0;;;8.0;41.5
60719;BME280;46567;51.660;5.824;2023-02-28T14:04:30;102930.0;;;7.9;40.5
60719;BME280;46567;51.660;5.824;2023-02-28T14:08:11;102920.0;;;7.8;40.5
60719;BME280;46567;51.660;5.824;2023-02-28T14:13:46;102930.0;;;7.9;40.5
60719;BME280;46567;51.660;5.824;2023-02-28T14:18:15;102930.0;;;7.8;41.5
60719;BME280;46567;51.660;5.824;2023-02-28T14:23:54;102920.0;;;7.7;40.0
60719;BME280;46567;51.660;5.824;2023-02-28T14:29:23;102910.0;;;7.8;40.5
60719;BME280;46567;51.660;5.824;2023-02-28T14:33:46;102900.0;;;7.8;41.5
60719;BME280;46567;51.660;5.824;2023-02-28T14:38:14;102910.0;;;8.0;41.5
60719;BME280;46567;51.660;5.824;2023-02-28T14:43:19;102910.0;;;8.0;41.0
60719;BME280;46567;51.660;5.824;2023-02-28T14:48:09;102920.0;;;8.0;41.5
60719;BME280;46567;51.660;5.824;2023-02-28T14:53:15;102910.0;;;8.2;42.0
60719;BME280;46567;51.660;5.824;2023-02-28T14:58:21;102900.0;;;8.1;41.0
60719;BME280;46567;51.660;5.824;2023-02-28T15:03:22;102900.0;;;8.2;41.0
60719;BME280;46567;51.660;5.824;2023-02-28T15:08:12;102910.0;;;8.2;41.5
60719;BME280;46567;51.660;5.824;2023-02-28T15:13:11;102900.0;;;8.3;41.5
60719;BME280;46567;51.660;5.824;2023-02-28T15:18:13;102910.0;;;8.1;41.5
60719;BME280;46567;51.660;5.824;2023-02-28T15:23:07;102900.0;;;7.8;41.0
60719;BME280;46567;51.660;5.824;2023-02-28T15:28:13;102920.0;;;7.6;41.5
60719;BME280;46567;51.660;5.824;2023-02-28T15:33:18;102900.0;;;7.6;42.5
60719;BME280;46567;51.660;5.824;2023-02-28T15:38:17;102910.0;;;7.7;41.5
60719;BME280;46567;51.660;5.824;2023-02-28T15:43:13;102900.0;;;7.6;42.5
60719;BME280;46567;51.660;5.824;2023-02-28T15:48:13;102900.0;;;7.6;42.0
60719;BME280;46567;51.660;5.824;2023-02-28T15:53:14;102900.0;;;7.5;42.5
60719;BME280;46567;51.660;5.824;2023-02-28T15:58:09;102910.0;;;7.5;42.5
60719;BME280;46567;51.660;5.824;2023-02-28T16:03:23;102890.0;;;7.3;42.5
60719;BME280;46567;51.660;5.824;2023-02-28T16:08:13;102900.0;;;7.1;42.5
60719;BME280;46567;51.660;5.824;2023-02-28T16:13:11;102900.0;;;7.0;43.5
60719;BME280;46567;51.660;5.824;2023-02-28T16:18:08;102910.0;;;6.9;44.0
60719;BME280;46567;51.660;5.824;2023-02-28T16:23:07;102910.0;;;6.8;43.5
60719;BME280;46567;51.660;5.824;2023-02-28T16:28:12;102910.0;;;6.6;44.5
60719;BME280;46567;51.660;5.824;2023-02-28T16:33:08;102900.0;;;6.5;44.5
60719;BME280;46567;51.660;5.824;2023-02-28T16:38:07;102910.0;;;6.4;45.0
60719;BME280;46567;51.660;5.824;2023-02-28T16:43:10;102920.0;;;6.3;45.5
60719;BME280;46567;51.660;5.824;2023-02-28T16:48:08;102920.0;;;6.1;46.0
60719;BME280;46567;51.660;5.824;2023-02-28T16:53:08;102920.0;;;5.9;46.5
60719;BME280;46567;51.660;5.824;2023-02-28T16:58:14;102930.0;;;5.8;47.0
60719;BME280;46567;51.660;5.824;2023-02-28T17:03:08;102930.0;;;5.6;47.0
60719;BME280;46567;51.660;5.824;2023-02-28T17:08:08;102930.0;;;5.5;47.5
60719;BME280;46567;51.660;5.824;2023-02-28T17:13:07;102940.0;;;5.3;48.0
60719;BME280;46567;51.660;5.824;2023-02-28T17:18:08;102950.0;;;5.2;48.5
60719;BME280;46567;51.660;5.824;2023-02-28T17:23:07;102960.0;;;5.0;48.5
60719;BME280;46567;51.660;5.824;2023-02-28T17:28:08;102960.0;;;5.0;49.0
60719;BME280;46567;51.660;5.824;2023-02-28T17:33:07;102960.0;;;4.9;49.0
60719;BME280;46567;51.660;5.824;2023-02-28T17:38:14;102970.0;;;4.9;49.5
60719;BME280;46567;51.660;5.824;2023-02-28T17:43:07;102970.0;;;4.8;49.5
60719;BME280;46567;51.660;5.824;2023-02-28T17:48:09;102980.0;;;4.8;49.5
60719;BME280;46567;51.660;5.824;2023-02-28T17:53:07;102980.0;;;4.7;49.5
60719;BME280;46567;51.660;5.824;2023-02-28T17:58:10;102980.0;;;4.7;49.5
60719;BME280;46567;51.660;5.824;2023-02-28T18:03:07;102990.0;;;4.7;49.5
60719;BME280;46567;51.660;5.824;2023-02-28T18:08:09;102990.0;;;4.7;50.0
60719;BME280;46567;51.660;5.824;2023-02-28T18:13:07;102990.0;;;4.6;50.0
60719;BME280;46567;51.660;5.824;2023-02-28T18:18:07;103000.0;;;4.5;50.0
60719;BME280;46567;51.660;5.824;2023-02-28T18:23:07;103000.0;;;4.4;50.0
60719;BME280;46567;51.660;5.824;2023-02-28T18:28:07;102990.0;;;4.4;50.5
60719;BME280;46567;51.660;5.824;2023-02-28T18:33:07;102990.0;;;4.3;50.5
60719;BME280;46567;51.660;5.824;2023-02-28T18:38:10;102990.0;;;4.1;51.0
60719;BME280;46567;51.660;5.824;2023-02-28T18:43:08;102990.0;;;4.1;51.0
60719;BME280;46567;51.660;5.824;2023-02-28T18:48:07;102990.0;;;4.0;51.0
60719;BME280;46567;51.660;5.824;2023-02-28T18:53:07;102990.0;;;3.9;51.5
60719;BME280;46567;51.660;5.824;2023-02-28T18:58:07;103000.0;;;3.8;51.5
60719;BME280;46567;51.660;5.824;2023-02-28T19:03:08;103000.0;;;3.7;52.0
60719;BME280;46567;51.660;5.824;2023-02-28T19:08:07;103000.0;;;3.7;52.0
60719;BME280;46567;51.660;5.824;2023-02-28T19:13:07;103010.0;;;3.6;52.0
60719;BME280;46567;51.660;5.824;2023-02-28T19:18:07;103010.0;;;3.6;52.0
60719;BME280;46567;51.660;5.824;2023-02-28T19:23:07;103000.0;;;3.5;52.5
60719;BME280;46567;51.660;5.824;2023-02-28T19:28:07;103000.0;;;3.4;52.5
60719;BME280;46567;51.660;5.824;2023-02-28T19:33:07;103010.0;;;3.2;52.5
60719;BME280;46567;51.660;5.824;2023-02-28T19:38:07;103010.0;;;3.1;53.0
60719;BME280;46567;51.660;5.824;2023-02-28T19:43:09;103020.0;;;2.9;53.0
60719;BME280;46567;51.660;5.824;2023-02-28T19:48:07;103030.0;;;2.8;53.5
60719;BME280;46567;51.660;5.824;2023-02-28T19:53:07;103020.0;;;2.7;54.0
60719;BME280;46567;51.660;5.824;2023-02-28T19:58:07;103030.0;;;2.6;53.5
60719;BME280;46567;51.660;5.824;2023-02-28T20:03:07;103030.0;;;2.5;54.0
60719;BME280;46567;51.660;5.824;2023-02-28T20:08:07;103030.0;;;2.4;54.0
60719;BME280;46567;51.660;5.824;2023-02-28T20:13:07;103040.0;;;2.3;54.0
60719;BME280;46567;51.660;5.824;2023-02-28T20:18:07;103050.0;;;2.2;54.5
60719;BME280;46567;51.660;5.824;2023-02-28T20:23:07;103040.0;;;2.2;55.0
60719;BME280;46567;51.660;5.824;2023-02-28T20:28:07;103040.0;;;2.2;55.0
60719;BME280;46567;51.660;5.824;2023-02-28T20:33:07;103040.0;;;2.2;55.0
60719;BME280;46567;51.660;5.824;2023-02-28T20:38:07;103040.0;;;2.2;55.5
60719;BME280;46567;51.660;5.824;2023-02-28T20:43:07;103030.0;;;2.2;55.0
60719;BME280;46567;51.660;5.824;2023-02-28T20:48:07;103040.0;;;2.2;55.5
60719;BME280;46567;51.660;5.824;2023-02-28T20:53:07;103030.0;;;2.2;55.5
60719;BME280;46567;51.660;5.824;2023-02-28T20:58:07;103040.0;;;2.1;55.5
60719;BME280;46567;51.660;5.824;2023-02-28T21:03:07;103050.0;;;2.2;55.5
60719;BME280;46567;51.660;5.824;2023-02-28T21:08:07;103040.0;;;2.1;56.0
60719;BME280;46567;51.660;5.824;2023-02-28T21:13:07;103040.0;;;2.1;56.0
60719;BME280;46567;51.660;5.824;2023-02-28T21:18:07;103030.0;;;2.1;56.0
60719;BME280;46567;51.660;5.824;2023-02-28T21:23:07;103040.0;;;2.1;56.0
60719;BME280;46567;51.660;5.824;2023-02-28T21:28:07;103040.0;;;2.0;56.5
60719;BME280;46567;51.660;5.824;2023-02-28T21:33:07;103040.0;;;2.0;56.5
60719;BME280;46567;51.660;5.824;2023-02-28T21:38:07;103030.0;;;2.0;56.5
60719;BME280;46567;51.660;5.824;2023-02-28T21:43:07;103030.0;;;2.0;56.5
60719;BME280;46567;51.660;5.824;2023-02-28T21:48:07;103020.0;;;2.0;56.5
60719;BME280;46567;51.660;5.824;2023-02-28T21:53:07;103030.0;;;1.9;57.0
60719;BME280;46567;51.660;5.824;2023-02-28T21:58:07;103040.0;;;1.9;56.5
60719;BME280;46567;51.660;5.824;2023-02-28T22:03:07;103040.0;;;1.9;57.0
60719;BME280;46567;51.660;5.824;2023-02-28T22:08:07;103040.0;;;1.8;57.0
60719;BME280;46567;51.660;5.824;2023-02-28T22:13:07;103030.0;;;1.8;57.0
60719;BME280;46567;51.660;5.824;2023-02-28T22:18:07;103030.0;;;1.7;57.5
60719;BME280;46567;51.660;5.824;2023-02-28T22:23:07;103040.0;;;1.6;57.0
60719;BME280;46567;51.660;5.824;2023-02-28T22:28:07;103040.0;;;1.4;57.5
60719;BME280;46567;51.660;5.824;2023-02-28T22:33:07;103030.0;;;1.3;58.0
60719;BME280;46567;51.660;5.824;2023-02-28T22:38:07;103040.0;;;1.3;58.0
60719;BME280;46567;51.660;5.824;2023-02-28T22:43:07;103050.0;;;1.2;58.0
60719;BME280;46567;51.660;5.824;2023-02-28T22:48:08;103050.0;;;1.1;58.0
60719;BME280;46567;51.660;5.824;2023-02-28T22:53:07;103050.0;;;1.0;58.0
60719;BME280;46567;51.660;5.824;2023-02-28T22:58:07;103050.0;;;1.0;58.5
60719;BME280;46567;51.660;5.824;2023-02-28T23:03:07;103050.0;;;0.8;58.5
60719;BME280;46567;51.660;5.824;2023-02-28T23:08:07;103030.0;;;0.7;58.5
60719;BME280;46567;51.660;5.824;2023-02-28T23:13:07;103040.0;;;0.7;59.0
60719;BME280;46567;51.660;5.824;2023-02-28T23:18:07;103030.0;;;0.7;59.0
60719;BME280;46567;51.660;5.824;2023-02-28T23:23:07;103040.0;;;0.7;59.0
60719;BME280;46567;51.660;5.824;2023-02-28T23:28:08;103050.0;;;0.6;59.0
60719;BME280;46567;51.660;5.824;2023-02-28T23:33:07;103060.0;;;0.6;59.0
60719;BME280;46567;51.660;5.824;2023-02-28T23:38:07;103060.0;;;0.5;59.5
60719;BME280;46567;51.660;5.824;2023-02-28T23:43:07;103060.0;;;0.5;59.5
60719;BME280;46567;51.660;5.824;2023-02-28T23:48:07;103070.0;;;0.5;59.5
60719;BME280;46567;51.660;5.824;2023-02-28T23:53:07;103070.0;;;0.5;59.5
60719;BME280;46567;51.660;5.824;2023-02-28T23:58:07;103070.0;;;0.5;59.5
